sensor_id;sensor_type;location;lat;lon;timestamp;P1;durP1;ratioP1;P2;durP2;ratioP2
22967;SDS011;11650;48.106;-1.696;2023-06-24T00:01:25;3.83;;;2.80;;
22967;SDS011;11650;48.106;-1.696;2023-06-24T00:03:51;5.07;;;2.97;;
22967;SDS011;11650;48.106;-1.696;2023-06-24T00:06:20;4.40;;;3.03;;
22967;SDS011;11650;48.106;-1.696;2023-06-24T00:08:47;5.37;;;3.00;;
22967;SDS011;11650;48.106;-1.696;2023-06-24T00:11:13;5.47;;;3.00;;
22967;SDS011;11650;48.106;-1.696;2023-06-24T00:13:42;5.53;;;2.83;;
22967;SDS011;11650;48.106;-1.696;2023-06-24T00:16:09;5.70;;;3.00;;
22967;SDS011;11650;48.106;-1.696;2023-06-24T00:18:36;5.50;;;3.00;;
22967;SDS011;11650;48.106;-1.696;2023-06-24T00:21:02;4.67;;;3.10;;
22967;SDS011;11650;48.106;-1.696;2023-06-24T00:23:29;5.50;;;3.20;;
22967;SDS011;11650;48.106;-1.696;2023-06-24T00:25:59;3.90;;;3.00;;
22967;SDS011;11650;48.106;-1.696;2023-06-24T00:28:26;4.03;;;3.00;;
22967;SDS011;11650;48.106;-1.696;2023-06-24T00:30:52;4.60;;;3.10;;
22967;SDS011;11650;48.106;-1.696;2023-06-24T00:33:18;3.50;;;2.77;;
22967;SDS011;11650;48.106;-1.696;2023-06-24T00:35:45;4.43;;;3.30;;
22967;SDS011;11650;48.106;-1.696;2023-06-24T00:38:11;3.53;;;2.83;;
22967;SDS011;11650;48.106;-1.696;2023-06-24T00:40:37;5.13;;;2.67;;
22967;SDS011;11650;48.106;-1.696;2023-06-24T00:43:03;3.93;;;2.90;;
22967;SDS011;11650;48.106;-1.696;2023-06-24T00:45:30;4.33;;;2.70;;
22967;SDS011;11650;48.106;-1.696;2023-06-24T00:47:57;3.80;;;3.00;;
22967;SDS011;11650;48.106;-1.696;2023-06-24T00:50:23;4.03;;;2.80;;
22967;SDS011;11650;48.106;-1.696;2023-06-24T00:52:49;5.87;;;3.10;;
22967;SDS011;11650;48.106;-1.696;2023-06-24T00:55:15;5.07;;;2.97;;
22967;SDS011;11650;48.106;-1.696;2023-06-24T00:57:45;5.40;;;3.30;;
22967;SDS011;11650;48.106;-1.696;2023-06-24T01:00:16;4.50;;;3.10;;
22967;SDS011;11650;48.106;-1.696;2023-06-24T01:02:47;5.43;;;3.40;;
22967;SDS011;11650;48.106;-1.696;2023-06-24T01:05:13;4.53;;;2.90;;
22967;SDS011;11650;48.106;-1.696;2023-06-24T01:07:40;4.33;;;2.93;;
22967;SDS011;11650;48.106;-1.696;2023-06-24T01:10:07;4.90;;;3.00;;
22967;SDS011;11650;48.106;-1.696;2023-06-24T01:12:34;4.13;;;3.03;;
22967;SDS011;11650;48.106;-1.696;2023-06-24T01:15:01;5.80;;;3.30;;
22967;SDS011;11650;48.106;-1.696;2023-06-24T01:17:39;5.43;;;3.07;;
22967;SDS011;11650;48.106;-1.696;2023-06-24T01:20:25;5.07;;;3.40;;
22967;SDS011;11650;48.106;-1.696;2023-06-24T01:29:02;5.63;;;3.37;;
22967;SDS011;11650;48.106;-1.696;2023-06-24T01:31:54;8.13;;;3.37;;
22967;SDS011;11650;48.106;-1.696;2023-06-24T01:37:10;5.77;;;3.60;;
22967;SDS011;11650;48.106;-1.696;2023-06-24T01:42:40;5.67;;;3.50;;
22967;SDS011;11650;48.106;-1.696;2023-06-24T01:45:09;5.13;;;3.67;;
22967;SDS011;11650;48.106;-1.696;2023-06-24T01:47:38;6.17;;;3.70;;
22967;SDS011;11650;48.106;-1.696;2023-06-24T01:50:09;5.13;;;3.50;;
22967;SDS011;11650;48.106;-1.696;2023-06-24T01:52:36;6.67;;;3.60;;
22967;SDS011;11650;48.106;-1.696;2023-06-24T01:55:04;4.40;;;3.67;;
22967;SDS011;11650;48.106;-1.696;2023-06-24T01:57:33;4.70;;;3.63;;
22967;SDS011;11650;48.106;-1.696;2023-06-24T02:00:01;5.30;;;4.10;;
22967;SDS011;11650;48.106;-1.696;2023-06-24T02:02:31;4.60;;;3.57;;
22967;SDS011;11650;48.106;-1.696;2023-06-24T02:04:58;5.23;;;3.83;;
22967;SDS011;11650;48.106;-1.696;2023-06-24T02:07:26;5.40;;;3.43;;
22967;SDS011;11650;48.106;-1.696;2023-06-24T02:09:55;6.43;;;4.10;;
22967;SDS011;11650;48.106;-1.696;2023-06-24T02:12:22;5.70;;;3.70;;
22967;SDS011;11650;48.106;-1.696;2023-06-24T02:14:49;6.03;;;4.10;;
22967;SDS011;11650;48.106;-1.696;2023-06-24T02:17:17;5.90;;;4.00;;
22967;SDS011;11650;48.106;-1.696;2023-06-24T02:19:44;5.43;;;3.73;;
22967;SDS011;11650;48.106;-1.696;2023-06-24T02:22:10;5.97;;;4.20;;
22967;SDS011;11650;48.106;-1.696;2023-06-24T02:24:37;5.10;;;4.20;;
22967;SDS011;11650;48.106;-1.696;2023-06-24T02:27:06;7.87;;;4.37;;
22967;SDS011;11650;48.106;-1.696;2023-06-24T02:29:33;6.83;;;4.13;;
22967;SDS011;11650;48.106;-1.696;2023-06-24T02:32:02;9.00;;;4.23;;
22967;SDS011;11650;48.106;-1.696;2023-06-24T02:34:28;6.03;;;4.10;;
22967;SDS011;11650;48.106;-1.696;2023-06-24T02:36:54;5.63;;;4.37;;
22967;SDS011;11650;48.106;-1.696;2023-06-24T02:39:19;4.90;;;4.40;;
22967;SDS011;11650;48.106;-1.696;2023-06-24T02:41:45;6.90;;;4.37;;
22967;SDS011;11650;48.106;-1.696;2023-06-24T02:44:12;9.17;;;5.03;;
22967;SDS011;11650;48.106;-1.696;2023-06-24T02:46:38;6.27;;;4.53;;
22967;SDS011;11650;48.106;-1.696;2023-06-24T02:49:07;7.83;;;4.93;;
22967;SDS011;11650;48.106;-1.696;2023-06-24T02:51:34;6.67;;;4.83;;
22967;SDS011;11650;48.106;-1.696;2023-06-24T02:54:01;6.73;;;4.90;;
22967;SDS011;11650;48.106;-1.696;2023-06-24T02:56:27;8.47;;;4.60;;
22967;SDS011;11650;48.106;-1.696;2023-06-24T02:58:53;7.80;;;4.50;;
22967;SDS011;11650;48.106;-1.696;2023-06-24T03:01:20;8.60;;;4.83;;
22967;SDS011;11650;48.106;-1.696;2023-06-24T03:03:55;7.30;;;4.63;;
22967;SDS011;11650;48.106;-1.696;2023-06-24T03:06:22;7.93;;;4.70;;
22967;SDS011;11650;48.106;-1.696;2023-06-24T03:08:48;5.97;;;4.33;;
22967;SDS011;11650;48.106;-1.696;2023-06-24T03:11:15;6.57;;;4.23;;
22967;SDS011;11650;48.106;-1.696;2023-06-24T03:13:41;6.10;;;4.30;;
22967;SDS011;11650;48.106;-1.696;2023-06-24T03:16:08;8.40;;;4.80;;
22967;SDS011;11650;48.106;-1.696;2023-06-24T03:18:39;7.90;;;5.23;;
22967;SDS011;11650;48.106;-1.696;2023-06-24T03:21:05;7.83;;;5.00;;
22967;SDS011;11650;48.106;-1.696;2023-06-24T03:23:31;6.60;;;5.00;;
22967;SDS011;11650;48.106;-1.696;2023-06-24T03:25:57;6.03;;;4.97;;
22967;SDS011;11650;48.106;-1.696;2023-06-24T03:28:23;9.67;;;5.30;;
22967;SDS011;11650;48.106;-1.696;2023-06-24T03:30:48;7.73;;;5.00;;
22967;SDS011;11650;48.106;-1.696;2023-06-24T03:33:14;7.67;;;4.87;;
22967;SDS011;11650;48.106;-1.696;2023-06-24T03:35:42;7.57;;;4.90;;
22967;SDS011;11650;48.106;-1.696;2023-06-24T03:38:08;7.53;;;5.40;;
22967;SDS011;11650;48.106;-1.696;2023-06-24T03:40:34;6.87;;;5.17;;
22967;SDS011;11650;48.106;-1.696;2023-06-24T03:42:59;6.23;;;5.07;;
22967;SDS011;11650;48.106;-1.696;2023-06-24T03:45:25;5.40;;;4.90;;
22967;SDS011;11650;48.106;-1.696;2023-06-24T03:47:51;7.43;;;5.10;;
22967;SDS011;11650;48.106;-1.696;2023-06-24T03:50:17;6.60;;;4.77;;
22967;SDS011;11650;48.106;-1.696;2023-06-24T03:52:42;7.50;;;5.03;;
22967;SDS011;11650;48.106;-1.696;2023-06-24T03:55:09;7.63;;;5.33;;
22967;SDS011;11650;48.106;-1.696;2023-06-24T03:57:36;5.60;;;4.90;;
22967;SDS011;11650;48.106;-1.696;2023-06-24T04:00:02;6.50;;;4.90;;
22967;SDS011;11650;48.106;-1.696;2023-06-24T04:02:40;6.77;;;4.53;;
22967;SDS011;11650;48.106;-1.696;2023-06-24T04:05:07;7.33;;;5.10;;
22967;SDS011;11650;48.106;-1.696;2023-06-24T04:07:32;8.40;;;5.30;;
22967;SDS011;11650;48.106;-1.696;2023-06-24T04:10:01;8.03;;;5.33;;
22967;SDS011;11650;48.106;-1.696;2023-06-24T04:12:28;6.23;;;4.77;;
22967;SDS011;11650;48.106;-1.696;2023-06-24T04:14:54;6.40;;;4.77;;
22967;SDS011;11650;48.106;-1.696;2023-06-24T04:17:20;6.10;;;5.10;;
22967;SDS011;11650;48.106;-1.696;2023-06-24T04:19:45;10.80;;;4.83;;
22967;SDS011;11650;48.106;-1.696;2023-06-24T04:22:11;9.50;;;5.37;;
22967;SDS011;11650;48.106;-1.696;2023-06-24T04:24:37;9.37;;;5.50;;
22967;SDS011;11650;48.106;-1.696;2023-06-24T04:27:02;8.83;;;5.33;;
22967;SDS011;11650;48.106;-1.696;2023-06-24T04:29:28;9.37;;;5.30;;
22967;SDS011;11650;48.106;-1.696;2023-06-24T04:31:54;5.97;;;5.30;;
22967;SDS011;11650;48.106;-1.696;2023-06-24T04:34:19;6.10;;;4.70;;
22967;SDS011;11650;48.106;-1.696;2023-06-24T04:36:45;8.00;;;5.50;;
22967;SDS011;11650;48.106;-1.696;2023-06-24T04:39:11;7.73;;;5.47;;
22967;SDS011;11650;48.106;-1.696;2023-06-24T04:41:36;8.13;;;5.47;;
22967;SDS011;11650;48.106;-1.696;2023-06-24T04:44:02;9.03;;;5.77;;
22967;SDS011;11650;48.106;-1.696;2023-06-24T04:46:28;6.17;;;5.27;;
22967;SDS011;11650;48.106;-1.696;2023-06-24T04:48:54;8.73;;;5.63;;
22967;SDS011;11650;48.106;-1.696;2023-06-24T04:51:20;6.60;;;5.47;;
22967;SDS011;11650;48.106;-1.696;2023-06-24T04:53:45;8.73;;;5.57;;
22967;SDS011;11650;48.106;-1.696;2023-06-24T04:56:11;8.27;;;5.60;;
22967;SDS011;11650;48.106;-1.696;2023-06-24T04:58:36;8.70;;;5.83;;
22967;SDS011;11650;48.106;-1.696;2023-06-24T05:01:02;6.67;;;5.50;;
22967;SDS011;11650;48.106;-1.696;2023-06-24T05:03:28;7.57;;;5.97;;
22967;SDS011;11650;48.106;-1.696;2023-06-24T05:05:53;6.80;;;5.43;;
22967;SDS011;11650;48.106;-1.696;2023-06-24T05:08:19;10.10;;;6.03;;
22967;SDS011;11650;48.106;-1.696;2023-06-24T05:10:44;9.80;;;5.80;;
22967;SDS011;11650;48.106;-1.696;2023-06-24T05:13:10;9.93;;;5.80;;
22967;SDS011;11650;48.106;-1.696;2023-06-24T05:15:35;8.07;;;5.80;;
22967;SDS011;11650;48.106;-1.696;2023-06-24T05:18:01;9.27;;;5.70;;
22967;SDS011;11650;48.106;-1.696;2023-06-24T05:20:27;9.60;;;6.07;;
22967;SDS011;11650;48.106;-1.696;2023-06-24T05:22:53;7.87;;;5.50;;
22967;SDS011;11650;48.106;-1.696;2023-06-24T05:25:19;10.73;;;5.70;;
22967;SDS011;11650;48.106;-1.696;2023-06-24T05:27:44;8.80;;;5.27;;
22967;SDS011;11650;48.106;-1.696;2023-06-24T05:30:10;7.53;;;5.30;;
22967;SDS011;11650;48.106;-1.696;2023-06-24T05:32:37;7.90;;;5.60;;
22967;SDS011;11650;48.106;-1.696;2023-06-24T05:35:03;6.53;;;5.23;;
22967;SDS011;11650;48.106;-1.696;2023-06-24T05:37:29;7.93;;;5.50;;
22967;SDS011;11650;48.106;-1.696;2023-06-24T05:39:55;9.50;;;5.30;;
22967;SDS011;11650;48.106;-1.696;2023-06-24T05:42:22;7.80;;;5.20;;
22967;SDS011;11650;48.106;-1.696;2023-06-24T05:44:48;7.53;;;5.10;;
22967;SDS011;11650;48.106;-1.696;2023-06-24T05:47:14;9.07;;;5.00;;
22967;SDS011;11650;48.106;-1.696;2023-06-24T05:49:39;7.37;;;5.67;;
22967;SDS011;11650;48.106;-1.696;2023-06-24T05:52:05;9.80;;;5.60;;
22967;SDS011;11650;48.106;-1.696;2023-06-24T05:54:31;8.60;;;6.07;;
22967;SDS011;11650;48.106;-1.696;2023-06-24T05:56:57;9.23;;;5.77;;
22967;SDS011;11650;48.106;-1.696;2023-06-24T05:59:22;6.87;;;5.33;;
22967;SDS011;11650;48.106;-1.696;2023-06-24T06:01:48;9.47;;;5.37;;
22967;SDS011;11650;48.106;-1.696;2023-06-24T06:04:14;7.93;;;5.27;;
22967;SDS011;11650;48.106;-1.696;2023-06-24T06:06:39;7.90;;;5.20;;
22967;SDS011;11650;48.106;-1.696;2023-06-24T06:09:05;9.37;;;5.63;;
22967;SDS011;11650;48.106;-1.696;2023-06-24T06:11:31;7.70;;;5.50;;
22967;SDS011;11650;48.106;-1.696;2023-06-24T06:13:57;9.60;;;5.87;;
22967;SDS011;11650;48.106;-1.696;2023-06-24T06:16:22;8.40;;;5.40;;
22967;SDS011;11650;48.106;-1.696;2023-06-24T06:18:48;7.83;;;5.73;;
22967;SDS011;11650;48.106;-1.696;2023-06-24T06:21:14;9.17;;;5.30;;
22967;SDS011;11650;48.106;-1.696;2023-06-24T06:23:39;10.53;;;5.47;;
22967;SDS011;11650;48.106;-1.696;2023-06-24T06:26:05;8.93;;;5.53;;
22967;SDS011;11650;48.106;-1.696;2023-06-24T06:28:31;10.60;;;5.90;;
22967;SDS011;11650;48.106;-1.696;2023-06-24T06:30:56;11.33;;;5.90;;
22967;SDS011;11650;48.106;-1.696;2023-06-24T06:33:22;8.63;;;5.93;;
22967;SDS011;11650;48.106;-1.696;2023-06-24T06:35:48;6.77;;;5.53;;
22967;SDS011;11650;48.106;-1.696;2023-06-24T06:38:13;9.27;;;5.43;;
22967;SDS011;11650;48.106;-1.696;2023-06-24T06:40:39;9.03;;;5.00;;
22967;SDS011;11650;48.106;-1.696;2023-06-24T06:43:05;11.43;;;5.70;;
22967;SDS011;11650;48.106;-1.696;2023-06-24T06:45:31;8.70;;;5.47;;
22967;SDS011;11650;48.106;-1.696;2023-06-24T06:47:56;10.03;;;5.17;;
22967;SDS011;11650;48.106;-1.696;2023-06-24T06:50:22;7.87;;;5.50;;
22967;SDS011;11650;48.106;-1.696;2023-06-24T06:52:48;6.67;;;5.10;;
22967;SDS011;11650;48.106;-1.696;2023-06-24T06:55:13;8.07;;;5.57;;
22967;SDS011;11650;48.106;-1.696;2023-06-24T06:57:39;8.33;;;5.50;;
22967;SDS011;11650;48.106;-1.696;2023-06-24T07:00:05;10.13;;;5.23;;
22967;SDS011;11650;48.106;-1.696;2023-06-24T07:02:31;7.13;;;5.10;;
22967;SDS011;11650;48.106;-1.696;2023-06-24T07:04:57;9.43;;;5.27;;
22967;SDS011;11650;48.106;-1.696;2023-06-24T07:07:24;5.77;;;5.10;;
22967;SDS011;11650;48.106;-1.696;2023-06-24T07:09:50;9.33;;;5.13;;
22967;SDS011;11650;48.106;-1.696;2023-06-24T07:12:15;8.40;;;5.63;;
22967;SDS011;11650;48.106;-1.696;2023-06-24T07:14:41;7.90;;;5.23;;
22967;SDS011;11650;48.106;-1.696;2023-06-24T07:17:07;8.50;;;5.57;;
22967;SDS011;11650;48.106;-1.696;2023-06-24T07:19:33;9.83;;;5.50;;
22967;SDS011;11650;48.106;-1.696;2023-06-24T07:21:58;8.00;;;4.73;;
22967;SDS011;11650;48.106;-1.696;2023-06-24T07:24:24;9.43;;;5.60;;
22967;SDS011;11650;48.106;-1.696;2023-06-24T07:26:50;7.47;;;5.37;;
22967;SDS011;11650;48.106;-1.696;2023-06-24T07:29:15;7.60;;;5.27;;
22967;SDS011;11650;48.106;-1.696;2023-06-24T07:31:41;8.10;;;5.10;;
22967;SDS011;11650;48.106;-1.696;2023-06-24T07:34:06;8.43;;;5.50;;
22967;SDS011;11650;48.106;-1.696;2023-06-24T07:36:32;11.37;;;5.40;;
22967;SDS011;11650;48.106;-1.696;2023-06-24T07:38:58;9.87;;;4.97;;
22967;SDS011;11650;48.106;-1.696;2023-06-24T07:41:23;8.37;;;4.90;;
22967;SDS011;11650;48.106;-1.696;2023-06-24T07:43:49;7.03;;;5.27;;
22967;SDS011;11650;48.106;-1.696;2023-06-24T07:46:15;7.60;;;5.50;;
22967;SDS011;11650;48.106;-1.696;2023-06-24T07:48:41;7.83;;;5.43;;
22967;SDS011;11650;48.106;-1.696;2023-06-24T07:51:06;9.83;;;5.60;;
22967;SDS011;11650;48.106;-1.696;2023-06-24T07:53:32;8.10;;;4.80;;
22967;SDS011;11650;48.106;-1.696;2023-06-24T07:55:58;8.57;;;4.70;;
22967;SDS011;11650;48.106;-1.696;2023-06-24T07:58:24;8.50;;;5.53;;
22967;SDS011;11650;48.106;-1.696;2023-06-24T08:00:49;8.60;;;5.20;;
22967;SDS011;11650;48.106;-1.696;2023-06-24T08:03:15;7.10;;;4.90;;
22967;SDS011;11650;48.106;-1.696;2023-06-24T08:05:41;9.30;;;4.90;;
22967;SDS011;11650;48.106;-1.696;2023-06-24T08:08:08;9.93;;;4.97;;
22967;SDS011;11650;48.106;-1.696;2023-06-24T08:10:34;7.57;;;4.60;;
22967;SDS011;11650;48.106;-1.696;2023-06-24T08:12:59;7.50;;;5.17;;
22967;SDS011;11650;48.106;-1.696;2023-06-24T08:15:25;6.33;;;4.77;;
22967;SDS011;11650;48.106;-1.696;2023-06-24T08:17:51;9.17;;;5.00;;
22967;SDS011;11650;48.106;-1.696;2023-06-24T08:20:18;9.07;;;4.47;;
22967;SDS011;11650;48.106;-1.696;2023-06-24T08:22:46;8.03;;;5.03;;
22967;SDS011;11650;48.106;-1.696;2023-06-24T08:25:12;9.10;;;4.87;;
22967;SDS011;11650;48.106;-1.696;2023-06-24T08:27:38;8.77;;;4.83;;
22967;SDS011;11650;48.106;-1.696;2023-06-24T08:30:07;6.90;;;4.07;;
22967;SDS011;11650;48.106;-1.696;2023-06-24T08:32:33;7.33;;;4.13;;
22967;SDS011;11650;48.106;-1.696;2023-06-24T08:34:58;10.03;;;4.37;;
22967;SDS011;11650;48.106;-1.696;2023-06-24T08:37:24;8.10;;;4.33;;
22967;SDS011;11650;48.106;-1.696;2023-06-24T08:39:50;6.20;;;4.10;;
22967;SDS011;11650;48.106;-1.696;2023-06-24T08:42:15;8.60;;;4.10;;
22967;SDS011;11650;48.106;-1.696;2023-06-24T08:44:41;6.63;;;4.47;;
22967;SDS011;11650;48.106;-1.696;2023-06-24T08:47:07;10.30;;;4.37;;
22967;SDS011;11650;48.106;-1.696;2023-06-24T08:49:32;6.50;;;4.00;;
22967;SDS011;11650;48.106;-1.696;2023-06-24T08:52:04;5.80;;;3.90;;
22967;SDS011;11650;48.106;-1.696;2023-06-24T08:54:38;6.60;;;3.67;;
22967;SDS011;11650;48.106;-1.696;2023-06-24T08:57:05;5.87;;;4.23;;
22967;SDS011;11650;48.106;-1.696;2023-06-24T08:59:36;7.23;;;4.10;;
22967;SDS011;11650;48.106;-1.696;2023-06-24T09:02:02;5.50;;;4.10;;
22967;SDS011;11650;48.106;-1.696;2023-06-24T09:04:28;7.30;;;4.20;;
22967;SDS011;11650;48.106;-1.696;2023-06-24T09:06:53;9.40;;;4.10;;
22967;SDS011;11650;48.106;-1.696;2023-06-24T09:09:19;5.33;;;3.57;;
22967;SDS011;11650;48.106;-1.696;2023-06-24T09:11:57;5.57;;;3.63;;
22967;SDS011;11650;48.106;-1.696;2023-06-24T09:14:27;5.63;;;3.90;;
22967;SDS011;11650;48.106;-1.696;2023-06-24T09:19:23;8.17;;;3.60;;
22967;SDS011;11650;48.106;-1.696;2023-06-24T09:21:50;6.87;;;3.87;;
22967;SDS011;11650;48.106;-1.696;2023-06-24T09:24:17;7.53;;;3.77;;
22967;SDS011;11650;48.106;-1.696;2023-06-24T09:26:44;5.67;;;3.47;;
22967;SDS011;11650;48.106;-1.696;2023-06-24T09:29:10;8.53;;;3.93;;
22967;SDS011;11650;48.106;-1.696;2023-06-24T09:31:45;8.13;;;3.50;;
22967;SDS011;11650;48.106;-1.696;2023-06-24T09:34:12;5.83;;;3.60;;
22967;SDS011;11650;48.106;-1.696;2023-06-24T09:36:43;4.90;;;3.43;;
22967;SDS011;11650;48.106;-1.696;2023-06-24T09:39:09;4.85;;;3.28;;
22967;SDS011;11650;48.106;-1.696;2023-06-24T09:41:35;6.97;;;3.47;;
22967;SDS011;11650;48.106;-1.696;2023-06-24T09:44:01;4.57;;;3.30;;
22967;SDS011;11650;48.106;-1.696;2023-06-24T09:46:28;4.47;;;3.33;;
22967;SDS011;11650;48.106;-1.696;2023-06-24T09:48:55;4.72;;;3.58;;
22967;SDS011;11650;48.106;-1.696;2023-06-24T09:51:21;5.82;;;3.55;;
22967;SDS011;11650;48.106;-1.696;2023-06-24T09:53:48;5.85;;;3.13;;
22967;SDS011;11650;48.106;-1.696;2023-06-24T09:56:16;4.07;;;3.20;;
22967;SDS011;11650;48.106;-1.696;2023-06-24T09:58:43;3.80;;;3.17;;
22967;SDS011;11650;48.106;-1.696;2023-06-24T10:01:10;4.07;;;3.13;;
22967;SDS011;11650;48.106;-1.696;2023-06-24T10:03:37;6.35;;;3.50;;
22967;SDS011;11650;48.106;-1.696;2023-06-24T10:06:04;5.68;;;3.22;;
22967;SDS011;11650;48.106;-1.696;2023-06-24T10:08:30;3.95;;;3.17;;
22967;SDS011;11650;48.106;-1.696;2023-06-24T10:10:57;3.97;;;2.72;;
22967;SDS011;11650;48.106;-1.696;2023-06-24T10:13:24;5.13;;;3.15;;
22967;SDS011;11650;48.106;-1.696;2023-06-24T10:15:51;6.97;;;3.08;;
22967;SDS011;11650;48.106;-1.696;2023-06-24T10:21:04;3.53;;;2.90;;
22967;SDS011;11650;48.106;-1.696;2023-06-24T10:26:25;7.75;;;3.38;;
22967;SDS011;11650;48.106;-1.696;2023-06-24T10:34:27;4.15;;;3.17;;
22967;SDS011;11650;48.106;-1.696;2023-06-24T10:37:07;9.43;;;3.22;;
22967;SDS011;11650;48.106;-1.696;2023-06-24T10:50:04;4.38;;;3.10;;
22967;SDS011;11650;48.106;-1.696;2023-06-24T10:52:31;3.75;;;3.00;;
22967;SDS011;11650;48.106;-1.696;2023-06-24T10:54:57;5.97;;;3.20;;
22967;SDS011;11650;48.106;-1.696;2023-06-24T10:57:27;5.93;;;3.17;;
22967;SDS011;11650;48.106;-1.696;2023-06-24T10:59:54;4.93;;;3.15;;
22967;SDS011;11650;48.106;-1.696;2023-06-24T11:02:22;8.02;;;3.30;;
22967;SDS011;11650;48.106;-1.696;2023-06-24T11:04:49;5.10;;;2.92;;
22967;SDS011;11650;48.106;-1.696;2023-06-24T11:07:20;3.30;;;2.70;;
22967;SDS011;11650;48.106;-1.696;2023-06-24T11:09:54;3.83;;;3.00;;
22967;SDS011;11650;48.106;-1.696;2023-06-24T11:12:24;6.18;;;3.53;;
22967;SDS011;11650;48.106;-1.696;2023-06-24T11:14:51;6.50;;;3.00;;
22967;SDS011;11650;48.106;-1.696;2023-06-24T11:17:27;3.60;;;3.00;;
22967;SDS011;11650;48.106;-1.696;2023-06-24T11:19:54;4.88;;;2.90;;
22967;SDS011;11650;48.106;-1.696;2023-06-24T11:22:20;4.65;;;3.40;;
22967;SDS011;11650;48.106;-1.696;2023-06-24T11:24:46;3.58;;;3.28;;
22967;SDS011;11650;48.106;-1.696;2023-06-24T11:27:12;4.75;;;3.10;;
22967;SDS011;11650;48.106;-1.696;2023-06-24T11:29:37;4.57;;;3.17;;
22967;SDS011;11650;48.106;-1.696;2023-06-24T11:32:06;6.18;;;3.40;;
22967;SDS011;11650;48.106;-1.696;2023-06-24T11:34:33;10.07;;;3.58;;
22967;SDS011;11650;48.106;-1.696;2023-06-24T11:37:08;5.00;;;3.50;;
22967;SDS011;11650;48.106;-1.696;2023-06-24T11:39:35;3.72;;;2.95;;
22967;SDS011;11650;48.106;-1.696;2023-06-24T11:42:00;7.10;;;3.30;;
22967;SDS011;11650;48.106;-1.696;2023-06-24T11:44:26;3.85;;;3.00;;
22967;SDS011;11650;48.106;-1.696;2023-06-24T11:46:52;3.55;;;2.90;;
22967;SDS011;11650;48.106;-1.696;2023-06-24T11:49:18;8.23;;;3.60;;
22967;SDS011;11650;48.106;-1.696;2023-06-24T11:51:48;3.60;;;2.90;;
22967;SDS011;11650;48.106;-1.696;2023-06-24T11:54:18;6.82;;;3.25;;
22967;SDS011;11650;48.106;-1.696;2023-06-24T11:56:49;3.15;;;2.78;;
22967;SDS011;11650;48.106;-1.696;2023-06-24T12:01:56;7.20;;;3.10;;
22967;SDS011;11650;48.106;-1.696;2023-06-24T12:04:28;6.82;;;3.25;;
22967;SDS011;11650;48.106;-1.696;2023-06-24T12:06:55;8.25;;;2.75;;
22967;SDS011;11650;48.106;-1.696;2023-06-24T12:09:21;5.20;;;3.35;;
22967;SDS011;11650;48.106;-1.696;2023-06-24T12:11:47;3.20;;;2.60;;
22967;SDS011;11650;48.106;-1.696;2023-06-24T12:14:12;4.60;;;3.05;;
22967;SDS011;11650;48.106;-1.696;2023-06-24T12:16:38;5.85;;;3.38;;
22967;SDS011;11650;48.106;-1.696;2023-06-24T12:19:05;5.65;;;3.17;;
22967;SDS011;11650;48.106;-1.696;2023-06-24T12:21:31;5.43;;;3.22;;
22967;SDS011;11650;48.106;-1.696;2023-06-24T12:23:57;4.15;;;3.10;;
22967;SDS011;11650;48.106;-1.696;2023-06-24T12:26:23;4.32;;;3.10;;
22967;SDS011;11650;48.106;-1.696;2023-06-24T12:28:48;5.85;;;3.20;;
22967;SDS011;11650;48.106;-1.696;2023-06-24T12:31:14;3.33;;;3.03;;
22967;SDS011;11650;48.106;-1.696;2023-06-24T12:33:40;5.57;;;3.20;;
22967;SDS011;11650;48.106;-1.696;2023-06-24T12:36:05;4.47;;;3.28;;
22967;SDS011;11650;48.106;-1.696;2023-06-24T12:38:31;4.82;;;3.20;;
22967;SDS011;11650;48.106;-1.696;2023-06-24T12:40:57;5.60;;;3.03;;
22967;SDS011;11650;48.106;-1.696;2023-06-24T12:43:23;5.53;;;3.10;;
22967;SDS011;11650;48.106;-1.696;2023-06-24T12:45:48;3.83;;;2.88;;
22967;SDS011;11650;48.106;-1.696;2023-06-24T12:48:16;5.80;;;3.05;;
22967;SDS011;11650;48.106;-1.696;2023-06-24T12:50:42;5.47;;;3.20;;
22967;SDS011;11650;48.106;-1.696;2023-06-24T12:53:07;5.13;;;2.92;;
22967;SDS011;11650;48.106;-1.696;2023-06-24T12:55:35;3.20;;;2.90;;
22967;SDS011;11650;48.106;-1.696;2023-06-24T12:58:01;6.22;;;3.22;;
22967;SDS011;11650;48.106;-1.696;2023-06-24T13:00:27;7.13;;;3.40;;
22967;SDS011;11650;48.106;-1.696;2023-06-24T13:02:52;3.28;;;2.90;;
22967;SDS011;11650;48.106;-1.696;2023-06-24T13:05:18;4.43;;;3.10;;
22967;SDS011;11650;48.106;-1.696;2023-06-24T13:07:44;3.70;;;2.95;;
22967;SDS011;11650;48.106;-1.696;2023-06-24T13:10:10;3.92;;;3.10;;
22967;SDS011;11650;48.106;-1.696;2023-06-24T13:12:36;4.32;;;3.00;;
22967;SDS011;11650;48.106;-1.696;2023-06-24T13:15:03;6.00;;;3.10;;
22967;SDS011;11650;48.106;-1.696;2023-06-24T13:17:29;3.90;;;2.83;;
22967;SDS011;11650;48.106;-1.696;2023-06-24T13:19:55;5.05;;;3.30;;
22967;SDS011;11650;48.106;-1.696;2023-06-24T13:22:21;5.72;;;3.20;;
22967;SDS011;11650;48.106;-1.696;2023-06-24T13:24:47;3.97;;;3.42;;
22967;SDS011;11650;48.106;-1.696;2023-06-24T13:27:13;4.40;;;2.80;;
22967;SDS011;11650;48.106;-1.696;2023-06-24T13:29:38;3.83;;;3.22;;
22967;SDS011;11650;48.106;-1.696;2023-06-24T13:32:04;4.40;;;3.08;;
22967;SDS011;11650;48.106;-1.696;2023-06-24T13:34:30;4.70;;;2.85;;
22967;SDS011;11650;48.106;-1.696;2023-06-24T13:36:56;5.28;;;3.13;;
22967;SDS011;11650;48.106;-1.696;2023-06-24T13:39:22;3.50;;;3.20;;
22967;SDS011;11650;48.106;-1.696;2023-06-24T13:41:48;3.80;;;3.22;;
22967;SDS011;11650;48.106;-1.696;2023-06-24T13:44:15;6.63;;;3.30;;
22967;SDS011;11650;48.106;-1.696;2023-06-24T13:46:41;4.93;;;3.00;;
22967;SDS011;11650;48.106;-1.696;2023-06-24T13:49:07;4.30;;;3.40;;
22967;SDS011;11650;48.106;-1.696;2023-06-24T13:51:32;4.60;;;3.00;;
22967;SDS011;11650;48.106;-1.696;2023-06-24T13:53:58;4.22;;;3.15;;
22967;SDS011;11650;48.106;-1.696;2023-06-24T13:56:25;4.68;;;3.00;;
22967;SDS011;11650;48.106;-1.696;2023-06-24T13:58:51;5.72;;;3.13;;
22967;SDS011;11650;48.106;-1.696;2023-06-24T14:01:18;3.47;;;2.95;;
22967;SDS011;11650;48.106;-1.696;2023-06-24T14:03:44;4.03;;;3.00;;
22967;SDS011;11650;48.106;-1.696;2023-06-24T14:06:10;7.32;;;3.63;;
22967;SDS011;11650;48.106;-1.696;2023-06-24T14:08:39;16.08;;;3.15;;
22967;SDS011;11650;48.106;-1.696;2023-06-24T14:11:04;5.75;;;3.30;;
22967;SDS011;11650;48.106;-1.696;2023-06-24T14:13:30;5.05;;;2.63;;
22967;SDS011;11650;48.106;-1.696;2023-06-24T14:15:56;3.55;;;2.85;;
22967;SDS011;11650;48.106;-1.696;2023-06-24T14:18:22;3.95;;;2.90;;
22967;SDS011;11650;48.106;-1.696;2023-06-24T14:20:48;7.25;;;2.63;;
22967;SDS011;11650;48.106;-1.696;2023-06-24T14:23:14;5.72;;;2.85;;
22967;SDS011;11650;48.106;-1.696;2023-06-24T14:25:40;2.90;;;2.60;;
22967;SDS011;11650;48.106;-1.696;2023-06-24T14:28:05;6.30;;;2.83;;
22967;SDS011;11650;48.106;-1.696;2023-06-24T14:30:32;4.13;;;2.55;;
22967;SDS011;11650;48.106;-1.696;2023-06-24T14:32:59;3.22;;;2.67;;
22967;SDS011;11650;48.106;-1.696;2023-06-24T14:35:25;5.53;;;2.97;;
22967;SDS011;11650;48.106;-1.696;2023-06-24T14:37:51;4.00;;;2.70;;
22967;SDS011;11650;48.106;-1.696;2023-06-24T14:40:17;4.15;;;2.72;;
22967;SDS011;11650;48.106;-1.696;2023-06-24T14:42:43;4.30;;;2.97;;
22967;SDS011;11650;48.106;-1.696;2023-06-24T14:45:09;3.10;;;2.78;;
22967;SDS011;11650;48.106;-1.696;2023-06-24T14:47:35;3.42;;;2.63;;
22967;SDS011;11650;48.106;-1.696;2023-06-24T14:50:01;7.57;;;2.55;;
22967;SDS011;11650;48.106;-1.696;2023-06-24T14:52:28;3.25;;;2.88;;
22967;SDS011;11650;48.106;-1.696;2023-06-24T14:54:54;6.22;;;2.40;;
22967;SDS011;11650;48.106;-1.696;2023-06-24T14:57:20;4.13;;;2.63;;
22967;SDS011;11650;48.106;-1.696;2023-06-24T14:59:48;7.75;;;2.60;;
22967;SDS011;11650;48.106;-1.696;2023-06-24T15:02:14;12.90;;;2.85;;
22967;SDS011;11650;48.106;-1.696;2023-06-24T15:04:39;4.60;;;2.83;;
22967;SDS011;11650;48.106;-1.696;2023-06-24T15:07:06;3.95;;;2.80;;
22967;SDS011;11650;48.106;-1.696;2023-06-24T15:09:31;3.10;;;2.80;;